Columbus Municipal Airport Columbus US
ICAO: KOLU
IATA: OLU
Category: Medium
Scheduled Services: No

Elevation: 1447 ft
TransAlt. 18000 ft.

Airport Communications:
AWOS 3:125.525
MINNEAPOLIS CNTR:128.75
CTAF/UNICOM:123.05
RDO:122.2

KOLU Zoom In..

Runways:

(A) RW 02 length 4135 ft width 150 ft
LOC 109.10 / hdg 22

(B) RW 14 length 6801 ft width 100 ft
LOC 109.10 / hdg 142

(C) RW 20 length 4135 ft width 150 ft
LOC 109.10 / hdg 202

(D) RW 32 length 6801 ft width 100 ft
LOC 109.10 / hdg 322

Location; KOLU
Day. 20 / Time. 16.56 Zulu
* Altimeter: 30.17
* Temperature: 12° c. 53.6°f.
* Wind from: 020° Speed 09 kn.
Dewpoint: 11° c.
Visibility: 6 Statute Miles.
Clouds: Overcast 900 ft.
Conditions: Mist.

KOLU 201656Z AUTO 02009KT 6SM BR OVC009 12/11 A3017 RMK AO2 SLP221 T01220111


Wind From 020°
Speed 09 kn.

 
 
jpsmedia.com for Web Design SOUNDCLOUD worldairports.se 2018   terms of use